map of SLW home
SLW - Airport
Location
City:  Saltillo, Coahuila, México
Name:Plan de Guadelupe International Airport
ICAO:MMIO
IATA:SLW

Details
Type:Airport (Aerodrome, Airfield)
Use:Public/Civil, International (customs port of entry)
Latitude:25°32'58"N (25.549497)
Longitude:100°55'43"W (-100.928668)
Datum:WGS 1984
Elevation:4778 ft (1456 m)
Variation:5.27°E (WMM2015v2 magnetic declination)
-0.11° annual change
Runways:2
Longest:9506 × 148 ft (2897 × 45 m), paved

Time
Time Zone:UTC-6 (DST-5)
Local Time:

Weather
METAR:MMIO 041340Z 00000KT 10SM BKN030 15/07 A3008 RMK 8/500
TAF:MMIO 031729Z 0318/0418 36005KT P6SM SCT250
BECMG 0320/0321 36010KT
FM040200 00000KT P6SM BKN250
BECMG 0412/0413 6SM HZ

Related Locations
Nearby:
Farthest:RRG: 11367 mi / 18293 km
Plaine Corail [Sir Gaëtan Duval Airport (Plaine Corail Airport)], Rodrigues Island, MU

Find:

   beyond  
but within

Other Information
Maps:
NOTAMs:
Links:
Sources:

  
  • flag of México
  • flag of Coahuila
  

Sectional Chart

Flight Planning
at skyvector.com

Satellite Image

Google Maps Satellite view

 

Copyright © 2004-2019 Karl L. Swartz. All rights reserved.
The Great Circle Mapper name and logo are trademarks of the Great Circle Mapper.
All other trademarks mentioned herein belong to their respective owners.
Please see credits for attibutions and further copyright information.

  Follow gcmap on Facebook Follow gcmap on Twitter GCmap on LinkedIn

hCard Microformat

Geo Microformat